sensor_id;sensor_type;location;lat;lon;timestamp;pressure;altitude;pressure_sealevel;temperature;humidity
9899;BME280;4988;49.238;6.698;2024-03-02T00:00:34;97780.63;;;7.03;82.95
9899;BME280;4988;49.238;6.698;2024-03-02T00:02:59;97789.88;;;6.95;83.87
9899;BME280;4988;49.238;6.698;2024-03-02T00:05:24;97794.66;;;6.88;84.15
9899;BME280;4988;49.238;6.698;2024-03-02T00:07:54;97783.38;;;6.84;84.17
9899;BME280;4988;49.238;6.698;2024-03-02T00:10:22;97784.50;;;6.80;84.12
9899;BME280;4988;49.238;6.698;2024-03-02T00:12:53;97787.19;;;6.79;83.86
9899;BME280;4988;49.238;6.698;2024-03-02T00:15:46;97788.31;;;6.74;83.58
9899;BME280;4988;49.238;6.698;2024-03-02T00:18:13;97780.59;;;6.70;83.53
9899;BME280;4988;49.238;6.698;2024-03-02T00:20:40;97781.16;;;6.76;83.12
9899;BME280;4988;49.238;6.698;2024-03-02T00:23:07;97777.59;;;6.78;82.71
9899;BME280;4988;49.238;6.698;2024-03-02T00:25:40;97782.78;;;6.79;82.69
9899;BME280;4988;49.238;6.698;2024-03-02T00:28:17;97783.84;;;6.75;81.25
9899;BME280;4988;49.238;6.698;2024-03-02T00:31:07;97778.97;;;6.67;81.67
9899;BME280;4988;49.238;6.698;2024-03-02T00:33:38;97784.59;;;6.61;81.63
9899;BME280;4988;49.238;6.698;2024-03-02T00:36:06;97792.22;;;6.50;81.69
9899;BME280;4988;49.238;6.698;2024-03-02T00:38:32;97793.25;;;6.47;81.83
9899;BME280;4988;49.238;6.698;2024-03-02T00:41:05;97789.19;;;6.40;82.31
9899;BME280;4988;49.238;6.698;2024-03-02T00:46:17;97787.56;;;6.37;82.68
9899;BME280;4988;49.238;6.698;2024-03-02T00:48:48;97786.97;;;6.32;82.86
9899;BME280;4988;49.238;6.698;2024-03-02T00:51:16;97786.16;;;6.30;82.08
9899;BME280;4988;49.238;6.698;2024-03-02T00:53:41;97793.41;;;6.26;82.75
9899;BME280;4988;49.238;6.698;2024-03-02T00:56:10;97783.69;;;6.27;82.78
9899;BME280;4988;49.238;6.698;2024-03-02T00:58:36;97782.00;;;6.26;82.73
9899;BME280;4988;49.238;6.698;2024-03-02T01:01:01;97781.91;;;6.27;83.10
9899;BME280;4988;49.238;6.698;2024-03-02T01:03:26;97781.81;;;6.29;81.93
9899;BME280;4988;49.238;6.698;2024-03-02T01:05:52;97779.97;;;6.31;81.39
9899;BME280;4988;49.238;6.698;2024-03-02T01:08:17;97773.13;;;6.44;80.28
9899;BME280;4988;49.238;6.698;2024-03-02T01:10:43;97779.47;;;6.40;80.11
9899;BME280;4988;49.238;6.698;2024-03-02T01:13:08;97778.94;;;6.34;80.31
9899;BME280;4988;49.238;6.698;2024-03-02T01:15:34;97768.19;;;6.37;80.30
9899;BME280;4988;49.238;6.698;2024-03-02T01:17:59;97782.19;;;6.39;80.41
9899;BME280;4988;49.238;6.698;2024-03-02T01:20:25;97771.53;;;6.40;79.80
9899;BME280;4988;49.238;6.698;2024-03-02T01:22:50;97767.19;;;6.57;79.51
9899;BME280;4988;49.238;6.698;2024-03-02T01:25:15;97773.09;;;6.62;78.02
9899;BME280;4988;49.238;6.698;2024-03-02T01:27:41;97765.31;;;6.59;78.38
9899;BME280;4988;49.238;6.698;2024-03-02T01:30:07;97773.69;;;6.67;77.56
9899;BME280;4988;49.238;6.698;2024-03-02T01:32:32;97771.38;;;6.61;78.04
9899;BME280;4988;49.238;6.698;2024-03-02T01:34:57;97771.69;;;6.55;77.70
9899;BME280;4988;49.238;6.698;2024-03-02T01:37:23;97774.44;;;6.53;77.79
9899;BME280;4988;49.238;6.698;2024-03-02T01:39:48;97775.53;;;6.49;78.25
9899;BME280;4988;49.238;6.698;2024-03-02T01:42:14;97769.44;;;6.47;77.95
9899;BME280;4988;49.238;6.698;2024-03-02T01:44:40;97766.13;;;6.43;77.99
9899;BME280;4988;49.238;6.698;2024-03-02T01:47:05;97765.88;;;6.48;77.89
9899;BME280;4988;49.238;6.698;2024-03-02T01:49:31;97768.22;;;6.54;78.08
9899;BME280;4988;49.238;6.698;2024-03-02T01:51:58;97756.28;;;6.63;77.38
9899;BME280;4988;49.238;6.698;2024-03-02T01:54:23;97752.91;;;6.77;76.32
9899;BME280;4988;49.238;6.698;2024-03-02T01:56:48;97758.44;;;6.72;75.74
9899;BME280;4988;49.238;6.698;2024-03-02T01:59:14;97753.59;;;6.81;75.22
9899;BME280;4988;49.238;6.698;2024-03-02T02:01:39;97762.47;;;6.80;75.54
9899;BME280;4988;49.238;6.698;2024-03-02T02:04:04;97757.88;;;6.83;75.29
9899;BME280;4988;49.238;6.698;2024-03-02T02:06:31;97757.63;;;6.88;74.63
9899;BME280;4988;49.238;6.698;2024-03-02T02:08:57;97751.00;;;6.97;74.30
9899;BME280;4988;49.238;6.698;2024-03-02T02:11:22;97755.78;;;6.90;74.99
9899;BME280;4988;49.238;6.698;2024-03-02T02:13:48;97759.84;;;6.96;74.44
9899;BME280;4988;49.238;6.698;2024-03-02T02:16:13;97753.41;;;7.01;73.88
9899;BME280;4988;49.238;6.698;2024-03-02T02:18:38;97751.34;;;7.06;74.65
9899;BME280;4988;49.238;6.698;2024-03-02T02:21:04;97749.63;;;7.05;74.04
9899;BME280;4988;49.238;6.698;2024-03-02T02:23:29;97756.31;;;7.13;73.36
9899;BME280;4988;49.238;6.698;2024-03-02T02:25:54;97751.19;;;7.10;74.00
9899;BME280;4988;49.238;6.698;2024-03-02T02:28:20;97750.06;;;7.14;73.47
9899;BME280;4988;49.238;6.698;2024-03-02T02:30:45;97737.97;;;7.10;73.58
9899;BME280;4988;49.238;6.698;2024-03-02T02:33:11;97751.25;;;7.08;73.61
9899;BME280;4988;49.238;6.698;2024-03-02T02:35:36;97745.03;;;7.09;73.77
9899;BME280;4988;49.238;6.698;2024-03-02T02:38:02;97747.00;;;7.05;73.82
9899;BME280;4988;49.238;6.698;2024-03-02T02:40:28;97738.03;;;7.08;73.50
9899;BME280;4988;49.238;6.698;2024-03-02T02:42:57;97726.41;;;7.11;73.67
9899;BME280;4988;49.238;6.698;2024-03-02T02:45:22;97726.59;;;7.07;73.36
9899;BME280;4988;49.238;6.698;2024-03-02T02:47:48;97736.31;;;7.07;73.93
9899;BME280;4988;49.238;6.698;2024-03-02T02:50:13;97724.72;;;7.10;73.83
9899;BME280;4988;49.238;6.698;2024-03-02T02:52:40;97730.03;;;7.10;73.72
9899;BME280;4988;49.238;6.698;2024-03-02T02:55:10;97734.19;;;7.14;73.55
9899;BME280;4988;49.238;6.698;2024-03-02T02:57:37;97733.41;;;7.12;74.13
9899;BME280;4988;49.238;6.698;2024-03-02T03:00:11;97742.28;;;7.11;74.14
9899;BME280;4988;49.238;6.698;2024-03-02T03:02:43;97738.91;;;7.08;74.44
9899;BME280;4988;49.238;6.698;2024-03-02T03:05:10;97736.41;;;7.05;74.11
9899;BME280;4988;49.238;6.698;2024-03-02T03:07:36;97736.31;;;7.07;74.78
9899;BME280;4988;49.238;6.698;2024-03-02T03:10:03;97735.47;;;7.06;74.15
9899;BME280;4988;49.238;6.698;2024-03-02T03:12:29;97740.84;;;7.05;74.79
9899;BME280;4988;49.238;6.698;2024-03-02T03:14:55;97734.53;;;7.07;74.53
9899;BME280;4988;49.238;6.698;2024-03-02T03:17:23;97743.25;;;7.10;74.62
9899;BME280;4988;49.238;6.698;2024-03-02T03:19:49;97739.66;;;7.11;74.33
9899;BME280;4988;49.238;6.698;2024-03-02T03:22:15;97735.22;;;7.11;74.21
9899;BME280;4988;49.238;6.698;2024-03-02T03:24:40;97731.72;;;7.11;74.67
9899;BME280;4988;49.238;6.698;2024-03-02T03:27:06;97733.31;;;7.13;74.33
9899;BME280;4988;49.238;6.698;2024-03-02T03:29:31;97728.13;;;7.12;74.57
9899;BME280;4988;49.238;6.698;2024-03-02T03:31:57;97728.91;;;7.14;74.19
9899;BME280;4988;49.238;6.698;2024-03-02T03:34:22;97727.03;;;7.16;74.23
9899;BME280;4988;49.238;6.698;2024-03-02T03:36:47;97727.78;;;7.18;74.22
9899;BME280;4988;49.238;6.698;2024-03-02T03:39:13;97722.50;;;7.18;73.39
9899;BME280;4988;49.238;6.698;2024-03-02T03:41:38;97725.00;;;7.21;73.42
9899;BME280;4988;49.238;6.698;2024-03-02T03:44:05;97718.66;;;7.23;72.93
9899;BME280;4988;49.238;6.698;2024-03-02T03:46:30;97731.03;;;7.23;73.39
9899;BME280;4988;49.238;6.698;2024-03-02T03:48:55;97736.25;;;7.24;73.26
9899;BME280;4988;49.238;6.698;2024-03-02T03:51:21;97733.53;;;7.26;73.24
9899;BME280;4988;49.238;6.698;2024-03-02T03:53:48;97736.16;;;7.26;73.77
9899;BME280;4988;49.238;6.698;2024-03-02T03:56:13;97739.66;;;7.27;73.48
9899;BME280;4988;49.238;6.698;2024-03-02T03:58:38;97735.22;;;7.27;73.61
9899;BME280;4988;49.238;6.698;2024-03-02T04:01:04;97751.13;;;7.27;73.71
9899;BME280;4988;49.238;6.698;2024-03-02T04:03:29;97754.59;;;7.28;73.83
9899;BME280;4988;49.238;6.698;2024-03-02T04:05:55;97751.03;;;7.29;73.70
9899;BME280;4988;49.238;6.698;2024-03-02T04:08:20;97754.69;;;7.26;74.05
9899;BME280;4988;49.238;6.698;2024-03-02T04:10:46;97762.63;;;7.26;74.02
9899;BME280;4988;49.238;6.698;2024-03-02T04:13:11;97763.47;;;7.27;74.64
9899;BME280;4988;49.238;6.698;2024-03-02T04:15:37;97759.06;;;7.27;74.52
9899;BME280;4988;49.238;6.698;2024-03-02T04:18:02;97765.09;;;7.29;74.94
9899;BME280;4988;49.238;6.698;2024-03-02T04:20:28;97755.53;;;7.27;75.03
9899;BME280;4988;49.238;6.698;2024-03-02T04:22:53;97760.91;;;7.25;74.18
9899;BME280;4988;49.238;6.698;2024-03-02T04:25:18;97767.84;;;7.28;74.27
9899;BME280;4988;49.238;6.698;2024-03-02T04:27:45;97766.13;;;7.27;74.87
9899;BME280;4988;49.238;6.698;2024-03-02T04:30:10;97767.25;;;7.38;74.77
9899;BME280;4988;49.238;6.698;2024-03-02T04:32:36;97773.81;;;7.31;74.98
9899;BME280;4988;49.238;6.698;2024-03-02T04:35:01;97764.94;;;7.32;74.91
9899;BME280;4988;49.238;6.698;2024-03-02T04:37:27;97774.75;;;7.30;75.41
9899;BME280;4988;49.238;6.698;2024-03-02T04:39:52;97770.47;;;7.28;75.33
9899;BME280;4988;49.238;6.698;2024-03-02T04:42:17;97776.72;;;7.27;74.97
9899;BME280;4988;49.238;6.698;2024-03-02T04:44:43;97777.69;;;7.26;74.92
9899;BME280;4988;49.238;6.698;2024-03-02T04:47:08;97781.94;;;7.28;74.99
9899;BME280;4988;49.238;6.698;2024-03-02T04:49:33;97771.34;;;7.28;74.84
9899;BME280;4988;49.238;6.698;2024-03-02T04:51:59;97764.34;;;7.27;75.78
9899;BME280;4988;49.238;6.698;2024-03-02T04:54:24;97769.47;;;7.30;76.38
9899;BME280;4988;49.238;6.698;2024-03-02T04:56:50;97766.75;;;7.32;76.95
9899;BME280;4988;49.238;6.698;2024-03-02T04:59:18;97780.72;;;7.34;77.55
9899;BME280;4988;49.238;6.698;2024-03-02T05:01:44;97787.25;;;7.28;77.34
9899;BME280;4988;49.238;6.698;2024-03-02T05:04:10;97775.88;;;7.26;76.95
9899;BME280;4988;49.238;6.698;2024-03-02T05:06:41;97775.28;;;7.37;77.24
9899;BME280;4988;49.238;6.698;2024-03-02T05:09:07;97778.09;;;7.34;77.20
9899;BME280;4988;49.238;6.698;2024-03-02T05:11:32;97785.28;;;7.32;76.66
9899;BME280;4988;49.238;6.698;2024-03-02T05:14:06;97789.88;;;7.28;76.65
9899;BME280;4988;49.238;6.698;2024-03-02T05:16:35;97783.13;;;7.22;76.80
9899;BME280;4988;49.238;6.698;2024-03-02T05:19:03;97784.16;;;7.20;77.26
9899;BME280;4988;49.238;6.698;2024-03-02T05:21:31;97799.19;;;7.19;77.97
9899;BME280;4988;49.238;6.698;2024-03-02T05:23:56;97792.00;;;7.21;77.88
9899;BME280;4988;49.238;6.698;2024-03-02T05:26:22;97789.25;;;7.23;78.55
9899;BME280;4988;49.238;6.698;2024-03-02T05:28:47;97791.56;;;7.29;79.85
9899;BME280;4988;49.238;6.698;2024-03-02T05:31:15;97791.06;;;7.38;81.23
9899;BME280;4988;49.238;6.698;2024-03-02T05:33:40;97799.03;;;7.38;81.86
9899;BME280;4988;49.238;6.698;2024-03-02T05:36:06;97799.03;;;7.38;81.28
9899;BME280;4988;49.238;6.698;2024-03-02T05:38:32;97797.06;;;7.42;80.44
9899;BME280;4988;49.238;6.698;2024-03-02T05:40:57;97796.63;;;7.50;80.52
9899;BME280;4988;49.238;6.698;2024-03-02T05:43:23;97800.41;;;7.46;80.50
9899;BME280;4988;49.238;6.698;2024-03-02T05:45:48;97799.63;;;7.44;80.05
9899;BME280;4988;49.238;6.698;2024-03-02T05:48:14;97796.72;;;7.48;81.06
9899;BME280;4988;49.238;6.698;2024-03-02T05:50:39;97797.84;;;7.44;81.11
9899;BME280;4988;49.238;6.698;2024-03-02T05:53:05;97806.81;;;7.42;81.11
9899;BME280;4988;49.238;6.698;2024-03-02T05:55:30;97806.97;;;7.38;81.30
9899;BME280;4988;49.238;6.698;2024-03-02T05:57:56;97807.88;;;7.37;81.83
9899;BME280;4988;49.238;6.698;2024-03-02T06:00:30;97808.75;;;7.38;82.22
9899;BME280;4988;49.238;6.698;2024-03-02T06:02:56;97807.88;;;7.37;82.60
9899;BME280;4988;49.238;6.698;2024-03-02T06:05:21;97817.09;;;7.30;82.70
9899;BME280;4988;49.238;6.698;2024-03-02T06:07:46;97824.63;;;7.22;82.13
9899;BME280;4988;49.238;6.698;2024-03-02T06:10:12;97815.91;;;7.20;81.72
9899;BME280;4988;49.238;6.698;2024-03-02T06:12:37;97818.31;;;7.24;82.51
9899;BME280;4988;49.238;6.698;2024-03-02T06:15:03;97823.50;;;7.26;83.34
9899;BME280;4988;49.238;6.698;2024-03-02T06:17:29;97822.41;;;7.30;83.97
9899;BME280;4988;49.238;6.698;2024-03-02T06:19:54;97817.09;;;7.30;84.94
9899;BME280;4988;49.238;6.698;2024-03-02T06:22:49;97811.56;;;7.35;85.04
9899;BME280;4988;49.238;6.698;2024-03-02T06:25:15;97812.25;;;7.38;84.71
9899;BME280;4988;49.238;6.698;2024-03-02T06:27:40;97813.44;;;7.33;84.78
9899;BME280;4988;49.238;6.698;2024-03-02T06:30:05;97823.09;;;7.34;84.49
9899;BME280;4988;49.238;6.698;2024-03-02T06:32:31;97825.81;;;7.32;85.25
9899;BME280;4988;49.238;6.698;2024-03-02T06:34:56;97833.91;;;7.29;85.63
9899;BME280;4988;49.238;6.698;2024-03-02T06:37:21;97837.44;;;7.30;86.62
9899;BME280;4988;49.238;6.698;2024-03-02T06:39:47;97837.44;;;7.30;86.61
9899;BME280;4988;49.238;6.698;2024-03-02T06:42:12;97838.22;;;7.32;86.85
9899;BME280;4988;49.238;6.698;2024-03-02T06:44:37;97834.69;;;7.31;86.95
9899;BME280;4988;49.238;6.698;2024-03-02T06:47:03;97836.41;;;7.32;86.41
9899;BME280;4988;49.238;6.698;2024-03-02T06:49:29;97831.91;;;7.34;85.45
9899;BME280;4988;49.238;6.698;2024-03-02T06:51:54;97832.50;;;7.39;86.46
9899;BME280;4988;49.238;6.698;2024-03-02T06:54:20;97836.78;;;7.42;87.08
9899;BME280;4988;49.238;6.698;2024-03-02T06:56:46;97842.22;;;7.39;87.76
9899;BME280;4988;49.238;6.698;2024-03-02T06:59:11;97840.19;;;7.44;88.91
9899;BME280;4988;49.238;6.698;2024-03-02T07:01:37;97835.59;;;7.48;90.72
9899;BME280;4988;49.238;6.698;2024-03-02T07:04:02;97835.41;;;7.51;91.47
9899;BME280;4988;49.238;6.698;2024-03-02T07:06:27;97836.59;;;7.45;90.92
9899;BME280;4988;49.238;6.698;2024-03-02T07:08:53;97826.63;;;7.50;91.32
9899;BME280;4988;49.238;6.698;2024-03-02T07:11:18;97829.44;;;7.47;91.68
9899;BME280;4988;49.238;6.698;2024-03-02T07:13:43;97830.13;;;7.51;91.65
9899;BME280;4988;49.238;6.698;2024-03-02T07:16:09;97836.19;;;7.53;91.83
9899;BME280;4988;49.238;6.698;2024-03-02T07:18:55;97849.25;;;7.56;92.58
9899;BME280;4988;49.238;6.698;2024-03-02T07:21:22;97843.78;;;7.59;91.56
9899;BME280;4988;49.238;6.698;2024-03-02T07:23:48;97838.50;;;7.59;91.03
9899;BME280;4988;49.238;6.698;2024-03-02T07:26:14;97839.88;;;7.66;91.02
9899;BME280;4988;49.238;6.698;2024-03-02T07:28:41;97835.06;;;7.73;91.75
9899;BME280;4988;49.238;6.698;2024-03-02T07:31:06;97843.13;;;7.71;91.59
9899;BME280;4988;49.238;6.698;2024-03-02T07:33:32;97845.53;;;7.76;91.33
9899;BME280;4988;49.238;6.698;2024-03-02T07:35:57;97841.31;;;7.88;90.96
9899;BME280;4988;49.238;6.698;2024-03-02T07:38:25;97846.78;;;7.85;91.03
9899;BME280;4988;49.238;6.698;2024-03-02T07:40:50;97845.84;;;7.86;91.64
9899;BME280;4988;49.238;6.698;2024-03-02T07:43:16;97842.94;;;7.91;91.36
9899;BME280;4988;49.238;6.698;2024-03-02T07:45:42;97839.94;;;7.97;90.19
9899;BME280;4988;49.238;6.698;2024-03-02T07:48:07;97844.53;;;7.93;91.01
9899;BME280;4988;49.238;6.698;2024-03-02T07:50:33;97838.56;;;7.89;91.33
9899;BME280;4988;49.238;6.698;2024-03-02T07:53:03;97846.09;;;7.97;91.14
9899;BME280;4988;49.238;6.698;2024-03-02T07:55:29;97844.63;;;7.92;92.12
9899;BME280;4988;49.238;6.698;2024-03-02T07:57:55;97845.06;;;8.00;92.06
9899;BME280;4988;49.238;6.698;2024-03-02T08:00:20;97841.75;;;7.96;92.00
9899;BME280;4988;49.238;6.698;2024-03-02T08:02:45;97840.63;;;8.00;92.19
9899;BME280;4988;49.238;6.698;2024-03-02T08:05:11;97844.97;;;8.01;91.14
9899;BME280;4988;49.238;6.698;2024-03-02T08:07:37;97842.16;;;8.04;91.21
9899;BME280;4988;49.238;6.698;2024-03-02T08:10:02;97850.38;;;8.00;90.95
9899;BME280;4988;49.238;6.698;2024-03-02T08:12:28;97855.91;;;8.11;91.38
9899;BME280;4988;49.238;6.698;2024-03-02T08:14:53;97855.75;;;8.14;88.79
9899;BME280;4988;49.238;6.698;2024-03-02T08:17:19;97849.22;;;8.20;87.59
9899;BME280;4988;49.238;6.698;2024-03-02T08:19:44;97849.25;;;8.04;87.44
9899;BME280;4988;49.238;6.698;2024-03-02T08:22:10;97845.56;;;8.07;88.10
9899;BME280;4988;49.238;6.698;2024-03-02T08:24:35;97840.19;;;8.08;88.07
9899;BME280;4988;49.238;6.698;2024-03-02T08:27:01;97848.06;;;8.10;87.86
9899;BME280;4988;49.238;6.698;2024-03-02T08:29:26;97846.09;;;8.13;88.28
9899;BME280;4988;49.238;6.698;2024-03-02T08:31:52;97850.00;;;8.22;86.92
9899;BME280;4988;49.238;6.698;2024-03-02T08:34:18;97860.50;;;8.24;87.12
9899;BME280;4988;49.238;6.698;2024-03-02T08:36:43;97860.59;;;8.22;88.11
9899;BME280;4988;49.238;6.698;2024-03-02T08:39:08;97852.72;;;8.36;85.76
9899;BME280;4988;49.238;6.698;2024-03-02T08:41:41;97845.88;;;8.32;85.90
9899;BME280;4988;49.238;6.698;2024-03-02T08:44:08;97857.59;;;8.28;85.79
9899;BME280;4988;49.238;6.698;2024-03-02T08:46:34;97855.53;;;8.33;85.89
9899;BME280;4988;49.238;6.698;2024-03-02T08:48:59;97856.41;;;8.34;85.57
9899;BME280;4988;49.238;6.698;2024-03-02T08:51:24;97855.00;;;8.43;85.70
9899;BME280;4988;49.238;6.698;2024-03-02T08:53:50;97855.25;;;8.54;84.69
9899;BME280;4988;49.238;6.698;2024-03-02T08:56:15;97852.59;;;8.54;85.04
9899;BME280;4988;49.238;6.698;2024-03-02T08:58:41;97853.88;;;8.63;85.41
9899;BME280;4988;49.238;6.698;2024-03-02T09:01:06;97840.25;;;8.69;84.11
9899;BME280;4988;49.238;6.698;2024-03-02T09:03:33;97836.94;;;8.80;83.30
9899;BME280;4988;49.238;6.698;2024-03-02T09:06:00;97828.63;;;8.86;82.87
9899;BME280;4988;49.238;6.698;2024-03-02T09:08:25;97827.97;;;8.97;81.96
9899;BME280;4988;49.238;6.698;2024-03-02T09:10:51;97822.28;;;9.03;82.33
9899;BME280;4988;49.238;6.698;2024-03-02T09:13:16;97830.91;;;9.21;82.44
9899;BME280;4988;49.238;6.698;2024-03-02T09:15:41;97833.09;;;9.29;81.04
9899;BME280;4988;49.238;6.698;2024-03-02T09:18:07;97838.03;;;9.35;80.80
9899;BME280;4988;49.238;6.698;2024-03-02T09:20:32;97840.88;;;9.46;80.97
9899;BME280;4988;49.238;6.698;2024-03-02T09:22:58;97836.38;;;9.47;80.12
9899;BME280;4988;49.238;6.698;2024-03-02T09:25:23;97828.97;;;9.52;78.29
9899;BME280;4988;49.238;6.698;2024-03-02T09:27:48;97831.94;;;9.47;78.99
9899;BME280;4988;49.238;6.698;2024-03-02T09:30:14;97827.66;;;9.59;78.82
9899;BME280;4988;49.238;6.698;2024-03-02T09:32:39;97822.22;;;9.75;76.99
9899;BME280;4988;49.238;6.698;2024-03-02T09:35:05;97819.16;;;9.81;77.50
9899;BME280;4988;49.238;6.698;2024-03-02T09:37:30;97814.50;;;9.85;77.00
9899;BME280;4988;49.238;6.698;2024-03-02T09:39:56;97813.63;;;9.99;75.13
9899;BME280;4988;49.238;6.698;2024-03-02T09:42:21;97806.09;;;10.06;75.19
9899;BME280;4988;49.238;6.698;2024-03-02T09:44:47;97801.00;;;10.16;74.80
9899;BME280;4988;49.238;6.698;2024-03-02T09:47:13;97791.78;;;10.21;73.04
9899;BME280;4988;49.238;6.698;2024-03-02T09:49:39;97790.81;;;10.22;71.86
9899;BME280;4988;49.238;6.698;2024-03-02T09:52:05;97793.56;;;10.21;72.38
9899;BME280;4988;49.238;6.698;2024-03-02T09:54:32;97793.28;;;10.25;73.05
9899;BME280;4988;49.238;6.698;2024-03-02T09:56:57;97788.31;;;10.34;71.05
9899;BME280;4988;49.238;6.698;2024-03-02T09:59:22;97787.06;;;10.39;71.70
9899;BME280;4988;49.238;6.698;2024-03-02T10:02:01;97789.22;;;10.47;71.04
9899;BME280;4988;49.238;6.698;2024-03-02T10:04:28;97794.13;;;10.53;70.10
9899;BME280;4988;49.238;6.698;2024-03-02T10:07:09;97787.09;;;10.52;69.15
9899;BME280;4988;49.238;6.698;2024-03-02T10:09:36;97784.84;;;10.46;70.19
9899;BME280;4988;49.238;6.698;2024-03-02T10:12:06;97785.81;;;10.45;69.86
9899;BME280;4988;49.238;6.698;2024-03-02T10:14:32;97782.50;;;10.54;69.89
9899;BME280;4988;49.238;6.698;2024-03-02T10:17:11;97780.72;;;10.55;69.17
9899;BME280;4988;49.238;6.698;2024-03-02T10:19:38;97770.91;;;10.55;69.17
9899;BME280;4988;49.238;6.698;2024-03-02T10:22:05;97774.44;;;10.56;69.40
9899;BME280;4988;49.238;6.698;2024-03-02T10:24:38;97773.47;;;10.57;68.78
9899;BME280;4988;49.238;6.698;2024-03-02T10:27:18;97773.69;;;10.67;69.21
9899;BME280;4988;49.238;6.698;2024-03-02T10:29:46;97770.28;;;10.65;69.97
9899;BME280;4988;49.238;6.698;2024-03-02T10:32:12;97763.38;;;10.75;70.68
9899;BME280;4988;49.238;6.698;2024-03-02T10:34:40;97750.78;;;10.90;70.63
9899;BME280;4988;49.238;6.698;2024-03-02T10:37:06;97757.41;;;10.97;68.40
9899;BME280;4988;49.238;6.698;2024-03-02T10:39:33;97754.94;;;11.07;68.37
9899;BME280;4988;49.238;6.698;2024-03-02T10:42:02;97747.66;;;11.22;67.73
9899;BME280;4988;49.238;6.698;2024-03-02T10:44:28;97742.53;;;11.32;67.83
9899;BME280;4988;49.238;6.698;2024-03-02T10:46:55;97745.38;;;11.54;68.61
9899;BME280;4988;49.238;6.698;2024-03-02T10:49:22;97743.25;;;11.71;67.94
9899;BME280;4988;49.238;6.698;2024-03-02T10:51:49;97736.19;;;11.83;66.24
9899;BME280;4988;49.238;6.698;2024-03-02T10:54:14;97731.25;;;11.89;65.64
9899;BME280;4988;49.238;6.698;2024-03-02T10:56:42;97736.44;;;12.04;66.23
9899;BME280;4988;49.238;6.698;2024-03-02T10:59:21;97724.22;;;12.13;65.94
9899;BME280;4988;49.238;6.698;2024-03-02T11:01:50;97713.34;;;12.27;65.34
9899;BME280;4988;49.238;6.698;2024-03-02T11:04:17;97709.00;;;12.37;65.01
9899;BME280;4988;49.238;6.698;2024-03-02T11:06:48;97711.19;;;12.44;64.33
9899;BME280;4988;49.238;6.698;2024-03-02T11:09:14;97699.94;;;12.51;65.28
9899;BME280;4988;49.238;6.698;2024-03-02T11:11:43;97712.31;;;12.52;64.03
9899;BME280;4988;49.238;6.698;2024-03-02T11:14:13;97711.97;;;12.57;63.85
9899;BME280;4988;49.238;6.698;2024-03-02T11:16:42;97708.34;;;12.69;63.76
9899;BME280;4988;49.238;6.698;2024-03-02T11:19:11;97694.38;;;12.77;63.53
9899;BME280;4988;49.238;6.698;2024-03-02T11:21:37;97708.84;;;12.97;63.97
9899;BME280;4988;49.238;6.698;2024-03-02T11:26:47;97697.78;;;13.13;63.31
9899;BME280;4988;49.238;6.698;2024-03-02T11:32:00;97696.19;;;13.22;62.14
9899;BME280;4988;49.238;6.698;2024-03-02T11:34:33;97699.97;;;13.19;62.73
9899;BME280;4988;49.238;6.698;2024-03-02T11:37:01;97696.94;;;13.01;62.47
9899;BME280;4988;49.238;6.698;2024-03-02T11:39:27;97695.50;;;12.97;63.13
9899;BME280;4988;49.238;6.698;2024-03-02T11:41:53;97686.38;;;13.00;63.27
9899;BME280;4988;49.238;6.698;2024-03-02T11:44:19;97679.56;;;13.07;62.88
9899;BME280;4988;49.238;6.698;2024-03-02T11:47:00;97677.13;;;13.04;63.25
9899;BME280;4988;49.238;6.698;2024-03-02T11:49:39;97677.50;;;13.11;62.67
9899;BME280;4988;49.238;6.698;2024-03-02T11:52:06;97672.88;;;13.13;63.37
9899;BME280;4988;49.238;6.698;2024-03-02T11:54:33;97674.31;;;13.28;63.56
9899;BME280;4988;49.238;6.698;2024-03-02T11:57:02;97662.66;;;13.29;62.93
9899;BME280;4988;49.238;6.698;2024-03-02T11:59:31;97656.94;;;13.23;62.03
9899;BME280;4988;49.238;6.698;2024-03-02T12:01:57;97648.22;;;13.21;62.64
9899;BME280;4988;49.238;6.698;2024-03-02T12:04:23;97656.84;;;13.13;62.59
9899;BME280;4988;49.238;6.698;2024-03-02T12:07:00;97648.22;;;13.09;62.66
9899;BME280;4988;49.238;6.698;2024-03-02T12:09:29;97652.09;;;13.16;62.84
9899;BME280;4988;49.238;6.698;2024-03-02T12:12:07;97655.25;;;13.22;63.75
9899;BME280;4988;49.238;6.698;2024-03-02T12:14:35;97652.22;;;13.15;63.27
9899;BME280;4988;49.238;6.698;2024-03-02T12:17:01;97649.31;;;13.18;63.37
9899;BME280;4988;49.238;6.698;2024-03-02T12:19:27;97646.75;;;13.16;63.35
9899;BME280;4988;49.238;6.698;2024-03-02T12:21:55;97648.81;;;13.13;63.36
9899;BME280;4988;49.238;6.698;2024-03-02T12:24:21;97641.91;;;13.10;63.69
9899;BME280;4988;49.238;6.698;2024-03-02T12:26:49;97645.78;;;13.17;63.79
9899;BME280;4988;49.238;6.698;2024-03-02T12:29:14;97634.84;;;13.32;64.03
9899;BME280;4988;49.238;6.698;2024-03-02T12:31:40;97635.81;;;13.42;63.71
9899;BME280;4988;49.238;6.698;2024-03-02T12:34:07;97635.31;;;13.37;63.03
9899;BME280;4988;49.238;6.698;2024-03-02T12:36:39;97635.56;;;13.45;62.88
9899;BME280;4988;49.238;6.698;2024-03-02T12:39:07;97641.50;;;13.49;62.64
9899;BME280;4988;49.238;6.698;2024-03-02T12:41:38;97645.75;;;13.51;64.57
9899;BME280;4988;49.238;6.698;2024-03-02T12:44:04;97647.44;;;13.53;63.63
9899;BME280;4988;49.238;6.698;2024-03-02T12:46:31;97640.19;;;13.43;64.60
9899;BME280;4988;49.238;6.698;2024-03-02T12:48:56;97649.91;;;13.22;65.36
9899;BME280;4988;49.238;6.698;2024-03-02T12:51:22;97646.06;;;13.14;66.63
9899;BME280;4988;49.238;6.698;2024-03-02T12:53:54;97648.59;;;13.16;67.70
9899;BME280;4988;49.238;6.698;2024-03-02T12:56:20;97653.34;;;13.01;69.46
9899;BME280;4988;49.238;6.698;2024-03-02T12:58:46;97658.44;;;13.04;70.58
9899;BME280;4988;49.238;6.698;2024-03-02T13:01:14;97652.75;;;12.97;71.44
9899;BME280;4988;49.238;6.698;2024-03-02T13:03:40;97652.28;;;12.92;72.55
9899;BME280;4988;49.238;6.698;2024-03-02T13:06:06;97658.47;;;12.93;71.29
9899;BME280;4988;49.238;6.698;2024-03-02T13:08:33;97643.41;;;12.92;71.21
9899;BME280;4988;49.238;6.698;2024-03-02T13:10:59;97643.41;;;12.92;72.08
9899;BME280;4988;49.238;6.698;2024-03-02T13:13:24;97642.19;;;12.84;73.31
9899;BME280;4988;49.238;6.698;2024-03-02T13:15:49;97639.03;;;12.79;74.08
9899;BME280;4988;49.238;6.698;2024-03-02T13:18:17;97644.88;;;12.73;76.33
9899;BME280;4988;49.238;6.698;2024-03-02T13:20:43;97640.50;;;12.72;77.33
9899;BME280;4988;49.238;6.698;2024-03-02T13:23:08;97638.56;;;12.74;78.29
9899;BME280;4988;49.238;6.698;2024-03-02T13:25:34;97639.28;;;12.76;77.76
9899;BME280;4988;49.238;6.698;2024-03-02T13:27:59;97637.13;;;12.70;76.72
9899;BME280;4988;49.238;6.698;2024-03-02T13:30:25;97638.31;;;12.66;76.77
9899;BME280;4988;49.238;6.698;2024-03-02T13:32:51;97636.38;;;12.68;76.59
9899;BME280;4988;49.238;6.698;2024-03-02T13:35:16;97634.44;;;12.70;78.59